sensor_id;sensor_type;location;lat;lon;timestamp;P1;durP1;ratioP1;P2;durP2;ratioP2
9240;SDS011;53485;49.326;9.738;2022-10-16T00:02:25;1.93;;;0.70;;
9240;SDS011;53485;49.326;9.738;2022-10-16T00:04:53;0.70;;;0.63;;
9240;SDS011;53485;49.326;9.738;2022-10-16T00:07:20;2.87;;;0.73;;
9240;SDS011;53485;49.326;9.738;2022-10-16T00:09:47;2.30;;;0.60;;
9240;SDS011;53485;49.326;9.738;2022-10-16T00:12:15;3.27;;;0.80;;
9240;SDS011;53485;49.326;9.738;2022-10-16T00:14:42;3.40;;;0.70;;
9240;SDS011;53485;49.326;9.738;2022-10-16T00:17:10;2.37;;;0.70;;
9240;SDS011;53485;49.326;9.738;2022-10-16T00:19:37;1.20;;;0.90;;
9240;SDS011;53485;49.326;9.738;2022-10-16T00:22:04;2.60;;;1.13;;
9240;SDS011;53485;49.326;9.738;2022-10-16T00:24:32;1.40;;;0.90;;
9240;SDS011;53485;49.326;9.738;2022-10-16T00:26:59;2.87;;;0.83;;
9240;SDS011;53485;49.326;9.738;2022-10-16T00:29:27;1.20;;;0.80;;
9240;SDS011;53485;49.326;9.738;2022-10-16T00:31:54;1.27;;;1.00;;
9240;SDS011;53485;49.326;9.738;2022-10-16T00:34:21;0.90;;;0.80;;
9240;SDS011;53485;49.326;9.738;2022-10-16T00:36:49;0.93;;;0.90;;
9240;SDS011;53485;49.326;9.738;2022-10-16T00:39:16;4.07;;;0.97;;
9240;SDS011;53485;49.326;9.738;2022-10-16T00:41:43;2.27;;;1.00;;
9240;SDS011;53485;49.326;9.738;2022-10-16T00:44:44;2.10;;;1.00;;
9240;SDS011;53485;49.326;9.738;2022-10-16T00:46:58;1.47;;;1.00;;
9240;SDS011;53485;49.326;9.738;2022-10-16T00:49:25;2.03;;;0.70;;
9240;SDS011;53485;49.326;9.738;2022-10-16T00:51:53;0.80;;;0.70;;
9240;SDS011;53485;49.326;9.738;2022-10-16T00:54:24;4.53;;;1.00;;
9240;SDS011;53485;49.326;9.738;2022-10-16T00:56:50;3.00;;;0.87;;
9240;SDS011;53485;49.326;9.738;2022-10-16T00:59:20;0.70;;;0.70;;
9240;SDS011;53485;49.326;9.738;2022-10-16T01:01:46;0.70;;;0.70;;
9240;SDS011;53485;49.326;9.738;2022-10-16T01:04:13;1.00;;;0.90;;
9240;SDS011;53485;49.326;9.738;2022-10-16T01:06:58;1.33;;;0.60;;
9240;SDS011;53485;49.326;9.738;2022-10-16T01:12:15;2.20;;;0.80;;
9240;SDS011;53485;49.326;9.738;2022-10-16T01:14:58;0.83;;;0.83;;
9240;SDS011;53485;49.326;9.738;2022-10-16T01:17:34;0.90;;;0.70;;
9240;SDS011;53485;49.326;9.738;2022-10-16T01:20:05;2.97;;;0.70;;
9240;SDS011;53485;49.326;9.738;2022-10-16T01:22:47;1.23;;;0.57;;
9240;SDS011;53485;49.326;9.738;2022-10-16T01:25:24;1.40;;;0.80;;
9240;SDS011;53485;49.326;9.738;2022-10-16T01:27:45;4.00;;;0.63;;
9240;SDS011;53485;49.326;9.738;2022-10-16T01:30:14;1.23;;;0.70;;
9240;SDS011;53485;49.326;9.738;2022-10-16T01:32:45;2.47;;;0.70;;
9240;SDS011;53485;49.326;9.738;2022-10-16T01:35:15;0.80;;;0.60;;
9240;SDS011;53485;49.326;9.738;2022-10-16T01:37:43;0.80;;;0.60;;
9240;SDS011;53485;49.326;9.738;2022-10-16T01:40:13;3.90;;;0.70;;
9240;SDS011;53485;49.326;9.738;2022-10-16T01:45:21;0.93;;;0.50;;
9240;SDS011;53485;49.326;9.738;2022-10-16T01:47:48;1.80;;;0.60;;
9240;SDS011;53485;49.326;9.738;2022-10-16T01:50:14;2.47;;;0.60;;
9240;SDS011;53485;49.326;9.738;2022-10-16T01:52:42;1.50;;;0.50;;
9240;SDS011;53485;49.326;9.738;2022-10-16T01:55:08;0.90;;;0.50;;
9240;SDS011;53485;49.326;9.738;2022-10-16T01:57:36;1.10;;;0.57;;
9240;SDS011;53485;49.326;9.738;2022-10-16T02:00:03;0.50;;;0.50;;
9240;SDS011;53485;49.326;9.738;2022-10-16T02:02:29;1.77;;;0.50;;
9240;SDS011;53485;49.326;9.738;2022-10-16T02:04:58;1.53;;;0.60;;
9240;SDS011;53485;49.326;9.738;2022-10-16T02:07:24;0.90;;;0.50;;
9240;SDS011;53485;49.326;9.738;2022-10-16T02:09:51;1.93;;;0.50;;
9240;SDS011;53485;49.326;9.738;2022-10-16T02:12:30;1.40;;;0.70;;
9240;SDS011;53485;49.326;9.738;2022-10-16T02:14:58;2.07;;;0.67;;
9240;SDS011;53485;49.326;9.738;2022-10-16T02:17:26;1.93;;;0.70;;
9240;SDS011;53485;49.326;9.738;2022-10-16T02:19:53;1.10;;;0.60;;
9240;SDS011;53485;49.326;9.738;2022-10-16T02:22:28;1.53;;;0.50;;
9240;SDS011;53485;49.326;9.738;2022-10-16T02:25:13;0.70;;;0.57;;
9240;SDS011;53485;49.326;9.738;2022-10-16T02:28:19;0.60;;;0.50;;
9240;SDS011;53485;49.326;9.738;2022-10-16T02:30:30;2.73;;;0.93;;
9240;SDS011;53485;49.326;9.738;2022-10-16T02:32:57;0.70;;;0.70;;
9240;SDS011;53485;49.326;9.738;2022-10-16T02:35:23;0.60;;;0.60;;
9240;SDS011;53485;49.326;9.738;2022-10-16T02:37:50;0.90;;;0.70;;
9240;SDS011;53485;49.326;9.738;2022-10-16T02:40:17;2.43;;;0.83;;
9240;SDS011;53485;49.326;9.738;2022-10-16T02:42:44;1.77;;;0.70;;
9240;SDS011;53485;49.326;9.738;2022-10-16T02:45:11;1.83;;;0.60;;
9240;SDS011;53485;49.326;9.738;2022-10-16T02:47:38;3.63;;;0.70;;
9240;SDS011;53485;49.326;9.738;2022-10-16T02:50:06;1.70;;;0.70;;
9240;SDS011;53485;49.326;9.738;2022-10-16T02:52:33;1.30;;;0.67;;
9240;SDS011;53485;49.326;9.738;2022-10-16T02:55:00;1.13;;;0.60;;
9240;SDS011;53485;49.326;9.738;2022-10-16T02:57:27;1.53;;;0.73;;
9240;SDS011;53485;49.326;9.738;2022-10-16T02:59:55;0.90;;;0.63;;
9240;SDS011;53485;49.326;9.738;2022-10-16T03:02:22;2.43;;;0.60;;
9240;SDS011;53485;49.326;9.738;2022-10-16T03:04:50;2.40;;;0.70;;
9240;SDS011;53485;49.326;9.738;2022-10-16T03:07:17;0.77;;;0.50;;
9240;SDS011;53485;49.326;9.738;2022-10-16T03:09:44;1.00;;;0.70;;
9240;SDS011;53485;49.326;9.738;2022-10-16T03:12:12;2.20;;;0.70;;
9240;SDS011;53485;49.326;9.738;2022-10-16T03:14:39;1.60;;;0.80;;
9240;SDS011;53485;49.326;9.738;2022-10-16T03:17:07;3.17;;;0.80;;
9240;SDS011;53485;49.326;9.738;2022-10-16T03:19:34;1.90;;;0.73;;
9240;SDS011;53485;49.326;9.738;2022-10-16T03:22:01;3.93;;;0.70;;
9240;SDS011;53485;49.326;9.738;2022-10-16T03:24:28;2.23;;;0.70;;
9240;SDS011;53485;49.326;9.738;2022-10-16T03:26:56;1.87;;;0.80;;
9240;SDS011;53485;49.326;9.738;2022-10-16T03:29:23;1.13;;;0.70;;
9240;SDS011;53485;49.326;9.738;2022-10-16T03:31:50;1.27;;;0.80;;
9240;SDS011;53485;49.326;9.738;2022-10-16T03:34:18;2.17;;;0.70;;
9240;SDS011;53485;49.326;9.738;2022-10-16T03:36:45;1.10;;;0.70;;
9240;SDS011;53485;49.326;9.738;2022-10-16T03:39:13;0.83;;;0.80;;
9240;SDS011;53485;49.326;9.738;2022-10-16T03:41:40;1.37;;;0.60;;
9240;SDS011;53485;49.326;9.738;2022-10-16T03:44:07;1.87;;;0.60;;
9240;SDS011;53485;49.326;9.738;2022-10-16T03:46:34;0.70;;;0.70;;
9240;SDS011;53485;49.326;9.738;2022-10-16T03:49:02;0.73;;;0.70;;
9240;SDS011;53485;49.326;9.738;2022-10-16T03:51:29;2.93;;;0.90;;
9240;SDS011;53485;49.326;9.738;2022-10-16T03:53:56;2.97;;;0.80;;
9240;SDS011;53485;49.326;9.738;2022-10-16T03:56:24;4.00;;;0.83;;
9240;SDS011;53485;49.326;9.738;2022-10-16T03:58:51;2.07;;;0.80;;
9240;SDS011;53485;49.326;9.738;2022-10-16T04:01:18;1.90;;;0.83;;
9240;SDS011;53485;49.326;9.738;2022-10-16T04:03:45;0.97;;;0.70;;
9240;SDS011;53485;49.326;9.738;2022-10-16T04:06:13;0.80;;;0.70;;
9240;SDS011;53485;49.326;9.738;2022-10-16T04:08:42;1.43;;;0.83;;
9240;SDS011;53485;49.326;9.738;2022-10-16T04:11:08;4.00;;;0.70;;
9240;SDS011;53485;49.326;9.738;2022-10-16T04:13:35;3.43;;;0.70;;
9240;SDS011;53485;49.326;9.738;2022-10-16T04:16:02;1.07;;;0.60;;
9240;SDS011;53485;49.326;9.738;2022-10-16T04:18:29;1.67;;;0.87;;
9240;SDS011;53485;49.326;9.738;2022-10-16T04:21:01;2.20;;;0.70;;
9240;SDS011;53485;49.326;9.738;2022-10-16T04:23:24;1.00;;;0.60;;
9240;SDS011;53485;49.326;9.738;2022-10-16T04:25:51;1.93;;;0.80;;
9240;SDS011;53485;49.326;9.738;2022-10-16T04:28:18;2.30;;;0.70;;
9240;SDS011;53485;49.326;9.738;2022-10-16T04:30:46;0.50;;;0.50;;
9240;SDS011;53485;49.326;9.738;2022-10-16T04:33:13;1.27;;;0.70;;
9240;SDS011;53485;49.326;9.738;2022-10-16T04:35:40;0.90;;;0.83;;
9240;SDS011;53485;49.326;9.738;2022-10-16T04:38:07;2.93;;;0.67;;
9240;SDS011;53485;49.326;9.738;2022-10-16T04:40:35;2.60;;;0.70;;
9240;SDS011;53485;49.326;9.738;2022-10-16T04:43:03;0.70;;;0.70;;
9240;SDS011;53485;49.326;9.738;2022-10-16T04:45:29;1.53;;;0.70;;
9240;SDS011;53485;49.326;9.738;2022-10-16T04:47:57;1.13;;;0.70;;
9240;SDS011;53485;49.326;9.738;2022-10-16T04:50:23;1.90;;;0.70;;
9240;SDS011;53485;49.326;9.738;2022-10-16T04:52:50;1.10;;;0.83;;
9240;SDS011;53485;49.326;9.738;2022-10-16T04:55:18;0.93;;;0.60;;
9240;SDS011;53485;49.326;9.738;2022-10-16T04:57:45;1.47;;;0.70;;
9240;SDS011;53485;49.326;9.738;2022-10-16T05:00:12;0.60;;;0.60;;
9240;SDS011;53485;49.326;9.738;2022-10-16T05:02:40;1.13;;;0.80;;
9240;SDS011;53485;49.326;9.738;2022-10-16T05:05:07;0.73;;;0.70;;
9240;SDS011;53485;49.326;9.738;2022-10-16T05:07:35;1.47;;;0.70;;
9240;SDS011;53485;49.326;9.738;2022-10-16T05:10:02;0.90;;;0.70;;
9240;SDS011;53485;49.326;9.738;2022-10-16T05:12:30;1.67;;;0.67;;
9240;SDS011;53485;49.326;9.738;2022-10-16T05:14:57;1.27;;;0.80;;
9240;SDS011;53485;49.326;9.738;2022-10-16T05:17:25;2.63;;;0.70;;
9240;SDS011;53485;49.326;9.738;2022-10-16T05:19:51;1.37;;;0.80;;
9240;SDS011;53485;49.326;9.738;2022-10-16T05:22:18;1.83;;;0.60;;
9240;SDS011;53485;49.326;9.738;2022-10-16T05:24:46;2.37;;;0.50;;
9240;SDS011;53485;49.326;9.738;2022-10-16T05:27:13;3.23;;;0.70;;
9240;SDS011;53485;49.326;9.738;2022-10-16T05:29:40;0.80;;;0.60;;
9240;SDS011;53485;49.326;9.738;2022-10-16T05:32:08;0.60;;;0.60;;
9240;SDS011;53485;49.326;9.738;2022-10-16T05:34:35;3.03;;;1.00;;
9240;SDS011;53485;49.326;9.738;2022-10-16T05:37:02;1.00;;;0.63;;
9240;SDS011;53485;49.326;9.738;2022-10-16T05:39:29;0.60;;;0.60;;
9240;SDS011;53485;49.326;9.738;2022-10-16T05:41:57;2.57;;;0.60;;
9240;SDS011;53485;49.326;9.738;2022-10-16T05:44:24;0.90;;;0.60;;
9240;SDS011;53485;49.326;9.738;2022-10-16T05:46:51;0.60;;;0.57;;
9240;SDS011;53485;49.326;9.738;2022-10-16T05:49:19;2.30;;;0.60;;
9240;SDS011;53485;49.326;9.738;2022-10-16T05:51:46;1.10;;;0.70;;
9240;SDS011;53485;49.326;9.738;2022-10-16T05:54:14;1.60;;;0.60;;
9240;SDS011;53485;49.326;9.738;2022-10-16T05:56:41;0.80;;;0.60;;
9240;SDS011;53485;49.326;9.738;2022-10-16T05:59:09;1.13;;;0.60;;
9240;SDS011;53485;49.326;9.738;2022-10-16T06:01:36;1.27;;;0.60;;
9240;SDS011;53485;49.326;9.738;2022-10-16T06:04:03;1.37;;;0.60;;
9240;SDS011;53485;49.326;9.738;2022-10-16T06:06:31;1.97;;;0.70;;
9240;SDS011;53485;49.326;9.738;2022-10-16T06:08:58;1.87;;;0.90;;
9240;SDS011;53485;49.326;9.738;2022-10-16T06:11:27;4.67;;;3.57;;
9240;SDS011;53485;49.326;9.738;2022-10-16T06:13:53;1.43;;;1.33;;
9240;SDS011;53485;49.326;9.738;2022-10-16T06:16:19;1.83;;;1.43;;
9240;SDS011;53485;49.326;9.738;2022-10-16T06:18:46;2.00;;;1.47;;
9240;SDS011;53485;49.326;9.738;2022-10-16T06:21:14;1.20;;;1.10;;
9240;SDS011;53485;49.326;9.738;2022-10-16T06:23:40;2.20;;;2.00;;
9240;SDS011;53485;49.326;9.738;2022-10-16T06:26:09;3.60;;;2.53;;
9240;SDS011;53485;49.326;9.738;2022-10-16T06:28:34;4.80;;;1.60;;
9240;SDS011;53485;49.326;9.738;2022-10-16T06:31:02;2.13;;;1.50;;
9240;SDS011;53485;49.326;9.738;2022-10-16T06:33:28;2.73;;;1.37;;
9240;SDS011;53485;49.326;9.738;2022-10-16T06:36:03;1.10;;;1.10;;
9240;SDS011;53485;49.326;9.738;2022-10-16T06:38:32;0.90;;;0.77;;
9240;SDS011;53485;49.326;9.738;2022-10-16T06:41:00;1.07;;;0.97;;
9240;SDS011;53485;49.326;9.738;2022-10-16T06:43:28;2.60;;;2.40;;
9240;SDS011;53485;49.326;9.738;2022-10-16T06:45:55;5.73;;;5.17;;
9240;SDS011;53485;49.326;9.738;2022-10-16T06:48:21;8.40;;;5.50;;
9240;SDS011;53485;49.326;9.738;2022-10-16T06:53:26;5.00;;;4.70;;
9240;SDS011;53485;49.326;9.738;2022-10-16T06:55:52;1.67;;;1.17;;
9240;SDS011;53485;49.326;9.738;2022-10-16T06:58:20;3.47;;;1.50;;
9240;SDS011;53485;49.326;9.738;2022-10-16T07:00:47;5.03;;;4.53;;
9240;SDS011;53485;49.326;9.738;2022-10-16T07:03:14;5.20;;;3.50;;
9240;SDS011;53485;49.326;9.738;2022-10-16T07:05:42;2.47;;;2.03;;
9240;SDS011;53485;49.326;9.738;2022-10-16T07:08:08;4.90;;;1.37;;
9240;SDS011;53485;49.326;9.738;2022-10-16T07:10:36;0.80;;;0.80;;
9240;SDS011;53485;49.326;9.738;2022-10-16T07:13:03;3.50;;;0.90;;
9240;SDS011;53485;49.326;9.738;2022-10-16T07:15:30;1.07;;;0.80;;
9240;SDS011;53485;49.326;9.738;2022-10-16T07:17:58;1.70;;;1.00;;
9240;SDS011;53485;49.326;9.738;2022-10-16T07:20:25;1.00;;;1.00;;
9240;SDS011;53485;49.326;9.738;2022-10-16T07:22:52;1.23;;;0.80;;
9240;SDS011;53485;49.326;9.738;2022-10-16T07:25:20;1.27;;;0.60;;
9240;SDS011;53485;49.326;9.738;2022-10-16T07:27:47;3.03;;;0.80;;
9240;SDS011;53485;49.326;9.738;2022-10-16T07:30:14;1.83;;;0.90;;
9240;SDS011;53485;49.326;9.738;2022-10-16T07:32:42;2.60;;;0.80;;
9240;SDS011;53485;49.326;9.738;2022-10-16T07:35:09;1.63;;;0.70;;
9240;SDS011;53485;49.326;9.738;2022-10-16T07:37:37;0.80;;;0.50;;
9240;SDS011;53485;49.326;9.738;2022-10-16T07:40:05;1.03;;;0.53;;
9240;SDS011;53485;49.326;9.738;2022-10-16T07:42:33;0.40;;;0.40;;
9240;SDS011;53485;49.326;9.738;2022-10-16T07:45:00;4.80;;;0.70;;
9240;SDS011;53485;49.326;9.738;2022-10-16T07:47:28;1.33;;;0.50;;
9240;SDS011;53485;49.326;9.738;2022-10-16T07:49:55;3.23;;;0.67;;
9240;SDS011;53485;49.326;9.738;2022-10-16T07:52:22;3.23;;;0.50;;
9240;SDS011;53485;49.326;9.738;2022-10-16T07:54:50;0.70;;;0.50;;
9240;SDS011;53485;49.326;9.738;2022-10-16T07:57:17;1.57;;;0.50;;
9240;SDS011;53485;49.326;9.738;2022-10-16T07:59:45;6.60;;;0.60;;
9240;SDS011;53485;49.326;9.738;2022-10-16T08:02:11;0.70;;;0.70;;
9240;SDS011;53485;49.326;9.738;2022-10-16T08:04:38;5.33;;;0.93;;
9240;SDS011;53485;49.326;9.738;2022-10-16T08:07:06;0.87;;;0.70;;
9240;SDS011;53485;49.326;9.738;2022-10-16T08:09:32;4.63;;;0.63;;
9240;SDS011;53485;49.326;9.738;2022-10-16T08:11:59;2.87;;;0.50;;
9240;SDS011;53485;49.326;9.738;2022-10-16T08:14:27;0.50;;;0.50;;
9240;SDS011;53485;49.326;9.738;2022-10-16T08:16:54;1.57;;;0.50;;
9240;SDS011;53485;49.326;9.738;2022-10-16T08:19:21;1.10;;;0.40;;
9240;SDS011;53485;49.326;9.738;2022-10-16T08:21:49;0.80;;;0.50;;
9240;SDS011;53485;49.326;9.738;2022-10-16T08:24:16;1.33;;;0.50;;
9240;SDS011;53485;49.326;9.738;2022-10-16T08:26:44;0.70;;;0.57;;
9240;SDS011;53485;49.326;9.738;2022-10-16T08:29:12;0.53;;;0.53;;
9240;SDS011;53485;49.326;9.738;2022-10-16T08:31:38;1.23;;;0.50;;
9240;SDS011;53485;49.326;9.738;2022-10-16T08:34:05;1.63;;;0.70;;
9240;SDS011;53485;49.326;9.738;2022-10-16T08:36:33;0.50;;;0.50;;
9240;SDS011;53485;49.326;9.738;2022-10-16T08:39:00;3.53;;;0.50;;
9240;SDS011;53485;49.326;9.738;2022-10-16T08:44:24;1.00;;;0.60;;
9240;SDS011;53485;49.326;9.738;2022-10-16T08:47:13;3.10;;;0.60;;
9240;SDS011;53485;49.326;9.738;2022-10-16T08:49:40;1.60;;;0.50;;
9240;SDS011;53485;49.326;9.738;2022-10-16T08:52:10;0.60;;;0.50;;
9240;SDS011;53485;49.326;9.738;2022-10-16T08:54:37;1.53;;;0.63;;
9240;SDS011;53485;49.326;9.738;2022-10-16T08:57:07;3.10;;;0.67;;
9240;SDS011;53485;49.326;9.738;2022-10-16T08:59:46;2.00;;;0.50;;
9240;SDS011;53485;49.326;9.738;2022-10-16T09:02:22;0.90;;;0.60;;
9240;SDS011;53485;49.326;9.738;2022-10-16T09:05:03;3.20;;;0.50;;
9240;SDS011;53485;49.326;9.738;2022-10-16T09:08:01;1.77;;;0.50;;
9240;SDS011;53485;49.326;9.738;2022-10-16T09:10:34;3.50;;;0.70;;
9240;SDS011;53485;49.326;9.738;2022-10-16T09:13:11;0.50;;;0.50;;
9240;SDS011;53485;49.326;9.738;2022-10-16T09:15:39;0.70;;;0.50;;
9240;SDS011;53485;49.326;9.738;2022-10-16T09:18:11;1.83;;;0.60;;
9240;SDS011;53485;49.326;9.738;2022-10-16T09:20:42;1.67;;;0.50;;
9240;SDS011;53485;49.326;9.738;2022-10-16T09:23:15;0.80;;;0.60;;
9240;SDS011;53485;49.326;9.738;2022-10-16T09:25:45;0.80;;;0.60;;
9240;SDS011;53485;49.326;9.738;2022-10-16T09:28:11;1.90;;;0.60;;
9240;SDS011;53485;49.326;9.738;2022-10-16T09:30:38;1.03;;;0.50;;
9240;SDS011;53485;49.326;9.738;2022-10-16T09:33:06;0.70;;;0.47;;
9240;SDS011;53485;49.326;9.738;2022-10-16T09:38:05;3.40;;;0.50;;
9240;SDS011;53485;49.326;9.738;2022-10-16T09:40:33;0.83;;;0.50;;
9240;SDS011;53485;49.326;9.738;2022-10-16T09:43:35;1.17;;;0.50;;
9240;SDS011;53485;49.326;9.738;2022-10-16T09:48:20;1.17;;;0.60;;
9240;SDS011;53485;49.326;9.738;2022-10-16T09:53:21;0.60;;;0.60;;
9240;SDS011;53485;49.326;9.738;2022-10-16T09:55:49;0.93;;;0.70;;
9240;SDS011;53485;49.326;9.738;2022-10-16T09:58:16;3.87;;;0.67;;
9240;SDS011;53485;49.326;9.738;2022-10-16T10:00:49;1.37;;;0.80;;
9240;SDS011;53485;49.326;9.738;2022-10-16T10:06:06;2.10;;;0.57;;
9240;SDS011;53485;49.326;9.738;2022-10-16T10:08:33;1.63;;;0.70;;
9240;SDS011;53485;49.326;9.738;2022-10-16T10:11:00;3.80;;;0.63;;
9240;SDS011;53485;49.326;9.738;2022-10-16T10:13:28;1.30;;;0.60;;
9240;SDS011;53485;49.326;9.738;2022-10-16T10:15:55;1.03;;;0.70;;
9240;SDS011;53485;49.326;9.738;2022-10-16T10:18:23;1.80;;;0.50;;
9240;SDS011;53485;49.326;9.738;2022-10-16T10:23:23;1.20;;;0.43;;
9240;SDS011;53485;49.326;9.738;2022-10-16T10:25:56;0.97;;;0.50;;
9240;SDS011;53485;49.326;9.738;2022-10-16T10:31:25;2.00;;;0.50;;
9240;SDS011;53485;49.326;9.738;2022-10-16T10:36:33;1.73;;;0.40;;
9240;SDS011;53485;49.326;9.738;2022-10-16T10:39:02;2.93;;;0.50;;
9240;SDS011;53485;49.326;9.738;2022-10-16T10:41:39;1.00;;;0.50;;
9240;SDS011;53485;49.326;9.738;2022-10-16T10:44:14;1.47;;;0.53;;
9240;SDS011;53485;49.326;9.738;2022-10-16T10:47:00;0.83;;;0.57;;
9240;SDS011;53485;49.326;9.738;2022-10-16T10:49:42;0.97;;;0.60;;
9240;SDS011;53485;49.326;9.738;2022-10-16T10:57:42;3.90;;;0.60;;
9240;SDS011;53485;49.326;9.738;2022-10-16T11:00:16;1.60;;;0.50;;
9240;SDS011;53485;49.326;9.738;2022-10-16T11:02:47;2.13;;;0.70;;
9240;SDS011;53485;49.326;9.738;2022-10-16T11:05:43;1.60;;;0.60;;
9240;SDS011;53485;49.326;9.738;2022-10-16T11:07:58;0.50;;;0.50;;
9240;SDS011;53485;49.326;9.738;2022-10-16T11:10:26;2.53;;;0.53;;
9240;SDS011;53485;49.326;9.738;2022-10-16T11:12:55;0.50;;;0.50;;
9240;SDS011;53485;49.326;9.738;2022-10-16T11:15:29;0.80;;;0.40;;
9240;SDS011;53485;49.326;9.738;2022-10-16T11:18:04;3.97;;;0.53;;
9240;SDS011;53485;49.326;9.738;2022-10-16T11:20:33;3.30;;;0.50;;
9240;SDS011;53485;49.326;9.738;2022-10-16T11:23:01;2.57;;;0.67;;
9240;SDS011;53485;49.326;9.738;2022-10-16T11:25:41;2.83;;;0.57;;
9240;SDS011;53485;49.326;9.738;2022-10-16T11:30:43;0.70;;;0.50;;
9240;SDS011;53485;49.326;9.738;2022-10-16T11:33:19;0.80;;;0.60;;
9240;SDS011;53485;49.326;9.738;2022-10-16T11:35:59;0.80;;;0.60;;
9240;SDS011;53485;49.326;9.738;2022-10-16T11:38:41;1.43;;;0.57;;
9240;SDS011;53485;49.326;9.738;2022-10-16T11:41:11;1.37;;;0.50;;
9240;SDS011;53485;49.326;9.738;2022-10-16T11:43:37;1.67;;;0.70;;
9240;SDS011;53485;49.326;9.738;2022-10-16T11:46:04;0.53;;;0.50;;
9240;SDS011;53485;49.326;9.738;2022-10-16T11:48:31;1.07;;;0.60;;
9240;SDS011;53485;49.326;9.738;2022-10-16T11:51:02;1.20;;;0.60;;
9240;SDS011;53485;49.326;9.738;2022-10-16T11:53:45;1.43;;;0.70;;
9240;SDS011;53485;49.326;9.738;2022-10-16T11:56:12;5.07;;;0.60;;
9240;SDS011;53485;49.326;9.738;2022-10-16T11:58:43;0.73;;;0.50;;
9240;SDS011;53485;49.326;9.738;2022-10-16T12:01:17;0.50;;;0.40;;
9240;SDS011;53485;49.326;9.738;2022-10-16T12:04:21;0.40;;;0.40;;
9240;SDS011;53485;49.326;9.738;2022-10-16T12:06:40;1.27;;;0.70;;
9240;SDS011;53485;49.326;9.738;2022-10-16T12:09:15;1.30;;;0.60;;
9240;SDS011;53485;49.326;9.738;2022-10-16T12:11:43;1.25;;;0.70;;
9240;SDS011;53485;49.326;9.738;2022-10-16T12:17:22;0.40;;;0.40;;
9240;SDS011;53485;49.326;9.738;2022-10-16T12:22:24;2.25;;;0.60;;
9240;SDS011;53485;49.326;9.738;2022-10-16T12:24:52;2.30;;;0.68;;
9240;SDS011;53485;49.326;9.738;2022-10-16T12:27:24;3.28;;;0.60;;
9240;SDS011;53485;49.326;9.738;2022-10-16T12:29:54;1.40;;;0.57;;
9240;SDS011;53485;49.326;9.738;2022-10-16T12:32:23;0.63;;;0.50;;
9240;SDS011;53485;49.326;9.738;2022-10-16T12:34:47;1.50;;;0.47;;
9240;SDS011;53485;49.326;9.738;2022-10-16T12:37:18;1.03;;;0.60;;
9240;SDS011;53485;49.326;9.738;2022-10-16T12:39:41;0.83;;;0.50;;
9240;SDS011;53485;49.326;9.738;2022-10-16T12:44:47;1.42;;;0.50;;
9240;SDS011;53485;49.326;9.738;2022-10-16T12:49:48;1.30;;;0.63;;
9240;SDS011;53485;49.326;9.738;2022-10-16T12:54:49;1.27;;;0.60;;
9240;SDS011;53485;49.326;9.738;2022-10-16T13:00:03;0.50;;;0.50;;
9240;SDS011;53485;49.326;9.738;2022-10-16T13:02:51;0.90;;;0.50;;
9240;SDS011;53485;49.326;9.738;2022-10-16T13:05:27;0.60;;;0.60;;
9240;SDS011;53485;49.326;9.738;2022-10-16T13:08:00;0.40;;;0.40;;
9240;SDS011;53485;49.326;9.738;2022-10-16T13:10:35;1.23;;;0.73;;
9240;SDS011;53485;49.326;9.738;2022-10-16T13:15:40;1.07;;;0.60;;
9240;SDS011;53485;49.326;9.738;2022-10-16T13:18:09;1.47;;;0.60;;
9240;SDS011;53485;49.326;9.738;2022-10-16T13:20:36;1.33;;;0.60;;
9240;SDS011;53485;49.326;9.738;2022-10-16T13:23:12;0.60;;;0.60;;
9240;SDS011;53485;49.326;9.738;2022-10-16T13:25:43;0.50;;;0.50;;
9240;SDS011;53485;49.326;9.738;2022-10-16T13:28:17;2.75;;;0.68;;
9240;SDS011;53485;49.326;9.738;2022-10-16T13:30:51;1.17;;;0.57;;
9240;SDS011;53485;49.326;9.738;2022-10-16T13:33:19;0.85;;;0.60;;
9240;SDS011;53485;49.326;9.738;2022-10-16T13:35:47;2.03;;;0.60;;
9240;SDS011;53485;49.326;9.738;2022-10-16T13:38:14;1.90;;;0.70;;
9240;SDS011;53485;49.326;9.738;2022-10-16T13:43:17;0.80;;;0.50;;
9240;SDS011;53485;49.326;9.738;2022-10-16T13:45:52;7.13;;;0.67;;
9240;SDS011;53485;49.326;9.738;2022-10-16T13:48:10;0.93;;;0.50;;
9240;SDS011;53485;49.326;9.738;2022-10-16T13:50:38;0.63;;;0.50;;
9240;SDS011;53485;49.326;9.738;2022-10-16T13:53:07;1.27;;;0.50;;
9240;SDS011;53485;49.326;9.738;2022-10-16T13:55:33;4.53;;;0.60;;
9240;SDS011;53485;49.326;9.738;2022-10-16T13:58:04;0.50;;;0.50;;
9240;SDS011;53485;49.326;9.738;2022-10-16T14:00:31;1.33;;;0.50;;
9240;SDS011;53485;49.326;9.738;2022-10-16T14:03:01;0.90;;;0.73;;
9240;SDS011;53485;49.326;9.738;2022-10-16T14:05:28;2.20;;;0.70;;
9240;SDS011;53485;49.326;9.738;2022-10-16T14:07:55;0.73;;;0.63;;
9240;SDS011;53485;49.326;9.738;2022-10-16T14:10:24;2.40;;;0.60;;
9240;SDS011;53485;49.326;9.738;2022-10-16T14:12:55;2.10;;;0.60;;
9240;SDS011;53485;49.326;9.738;2022-10-16T14:15:21;1.07;;;0.60;;
9240;SDS011;53485;49.326;9.738;2022-10-16T14:17:50;0.60;;;0.60;;
9240;SDS011;53485;49.326;9.738;2022-10-16T14:20:15;0.60;;;0.60;;
9240;SDS011;53485;49.326;9.738;2022-10-16T14:22:42;1.47;;;0.70;;
9240;SDS011;53485;49.326;9.738;2022-10-16T14:25:20;1.60;;;0.50;;
9240;SDS011;53485;49.326;9.738;2022-10-16T14:30:23;5.23;;;0.80;;
9240;SDS011;53485;49.326;9.738;2022-10-16T14:32:56;1.73;;;0.60;;
9240;SDS011;53485;49.326;9.738;2022-10-16T14:35:23;0.70;;;0.70;;
9240;SDS011;53485;49.326;9.738;2022-10-16T14:37:51;0.83;;;0.60;;
9240;SDS011;53485;49.326;9.738;2022-10-16T14:40:17;1.57;;;0.60;;
9240;SDS011;53485;49.326;9.738;2022-10-16T14:42:44;0.90;;;0.50;;
9240;SDS011;53485;49.326;9.738;2022-10-16T14:45:11;1.40;;;0.70;;
9240;SDS011;53485;49.326;9.738;2022-10-16T14:47:46;1.07;;;0.70;;
9240;SDS011;53485;49.326;9.738;2022-10-16T14:50:07;0.73;;;0.73;;
9240;SDS011;53485;49.326;9.738;2022-10-16T14:52:32;1.87;;;1.10;;
9240;SDS011;53485;49.326;9.738;2022-10-16T14:54:59;1.50;;;1.40;;
9240;SDS011;53485;49.326;9.738;2022-10-16T14:57:27;2.10;;;1.30;;
9240;SDS011;53485;49.326;9.738;2022-10-16T14:59:54;1.03;;;1.00;;
9240;SDS011;53485;49.326;9.738;2022-10-16T15:02:28;0.87;;;0.73;;
9240;SDS011;53485;49.326;9.738;2022-10-16T15:04:58;3.53;;;0.90;;
9240;SDS011;53485;49.326;9.738;2022-10-16T15:07:24;6.20;;;0.70;;
9240;SDS011;53485;49.326;9.738;2022-10-16T15:09:52;0.83;;;0.70;;
9240;SDS011;53485;49.326;9.738;2022-10-16T15:12:19;0.93;;;0.80;;
9240;SDS011;53485;49.326;9.738;2022-10-16T15:14:46;1.17;;;0.67;;
9240;SDS011;53485;49.326;9.738;2022-10-16T15:17:14;0.80;;;0.63;;
9240;SDS011;53485;49.326;9.738;2022-10-16T15:19:41;1.37;;;0.63;;
9240;SDS011;53485;49.326;9.738;2022-10-16T15:22:10;1.30;;;0.80;;
9240;SDS011;53485;49.326;9.738;2022-10-16T15:24:35;1.80;;;0.87;;
9240;SDS011;53485;49.326;9.738;2022-10-16T15:27:03;5.20;;;0.60;;
9240;SDS011;53485;49.326;9.738;2022-10-16T15:29:30;0.80;;;0.80;;
9240;SDS011;53485;49.326;9.738;2022-10-16T15:31:57;0.67;;;0.67;;
9240;SDS011;53485;49.326;9.738;2022-10-16T15:34:25;1.30;;;0.80;;
9240;SDS011;53485;49.326;9.738;2022-10-16T15:36:52;1.53;;;0.90;;
9240;SDS011;53485;49.326;9.738;2022-10-16T15:39:19;2.93;;;0.80;;
9240;SDS011;53485;49.326;9.738;2022-10-16T15:41:47;0.70;;;0.70;;
9240;SDS011;53485;49.326;9.738;2022-10-16T15:44:15;2.50;;;0.80;;
9240;SDS011;53485;49.326;9.738;2022-10-16T15:46:42;2.00;;;0.80;;
9240;SDS011;53485;49.326;9.738;2022-10-16T15:49:09;1.40;;;0.60;;
9240;SDS011;53485;49.326;9.738;2022-10-16T15:51:39;0.67;;;0.67;;
9240;SDS011;53485;49.326;9.738;2022-10-16T15:54:05;0.60;;;0.60;;
9240;SDS011;53485;49.326;9.738;2022-10-16T15:56:33;0.70;;;0.70;;
9240;SDS011;53485;49.326;9.738;2022-10-16T15:59:00;0.60;;;0.53;;
9240;SDS011;53485;49.326;9.738;2022-10-16T16:01:27;1.67;;;0.67;;
9240;SDS011;53485;49.326;9.738;2022-10-16T16:03:55;2.53;;;0.70;;
9240;SDS011;53485;49.326;9.738;2022-10-16T16:06:22;2.07;;;0.70;;
9240;SDS011;53485;49.326;9.738;2022-10-16T16:08:49;0.70;;;0.70;;
9240;SDS011;53485;49.326;9.738;2022-10-16T16:11:16;1.27;;;0.70;;
9240;SDS011;53485;49.326;9.738;2022-10-16T16:13:42;0.93;;;0.70;;